Lexington, Arkansas
Current Conditions -  °F | °C
As of 12:15 AM on Monday 26 Jan 2015 (Local Time) from KCCA Reporting Station
Overcast Overcast  
Wind Chill: 36°   Ceiling: 2400
Heat Index: 41°   Visibility: 10mi
Dew Point: 32°   Wind: 7mph
Humidity: 70%   Direction: 300°WNW
Pressure: 30.08"   Gusts: 18mph
Location:  35.4585°N, 92.3035°W
Report Text: KCCA 260615Z AUTO 30006G16KT 10SM OVC024 05/00 A3008 RMK AO2
Loading
Personal Weather Stations






























Interactive Weather Map New forecast layout! Learn more

10-Day Weather Forecast

Advertisements
Track Severe Weather on mobile